sensor_id;sensor_type;location;lat;lon;timestamp;pressure;altitude;pressure_sealevel;temperature;humidity
48027;BME280;50714;49.208;5.364;2023-03-11T00:04:29;98694.19;;;2.31;91.76
48027;BME280;50714;49.208;5.364;2023-03-11T00:14:29;98695.72;;;2.26;92.85
48027;BME280;50714;49.208;5.364;2023-03-11T00:24:30;98714.19;;;2.19;92.08
48027;BME280;50714;49.208;5.364;2023-03-11T00:34:30;98725.50;;;2.29;92.65
48027;BME280;50714;49.208;5.364;2023-03-11T00:44:30;98693.88;;;2.18;92.78
48027;BME280;50714;49.208;5.364;2023-03-11T00:54:31;98698.88;;;2.21;92.08
48027;BME280;50714;49.208;5.364;2023-03-11T01:04:31;98704.56;;;2.10;93.24
48027;BME280;50714;49.208;5.364;2023-03-11T01:14:31;98698.75;;;2.07;94.13
48027;BME280;50714;49.208;5.364;2023-03-11T01:24:32;98733.31;;;2.15;93.19
48027;BME280;50714;49.208;5.364;2023-03-11T01:34:32;98716.34;;;2.16;94.22
48027;BME280;50714;49.208;5.364;2023-03-11T01:44:35;98720.88;;;2.07;94.50
48027;BME280;50714;49.208;5.364;2023-03-11T01:54:37;98705.72;;;2.08;94.61
48027;BME280;50714;49.208;5.364;2023-03-11T02:04:39;98668.97;;;1.95;94.92
48027;BME280;50714;49.208;5.364;2023-03-11T02:14:44;98667.66;;;1.66;93.27
48027;BME280;50714;49.208;5.364;2023-03-11T02:35:00;98688.94;;;1.26;94.91
48027;BME280;50714;49.208;5.364;2023-03-11T02:45:09;98678.31;;;1.18;95.83
48027;BME280;50714;49.208;5.364;2023-03-11T02:55:10;98672.28;;;0.99;94.54
48027;BME280;50714;49.208;5.364;2023-03-11T03:05:12;98683.53;;;0.85;96.73
48027;BME280;50714;49.208;5.364;2023-03-11T03:15:12;98690.56;;;0.94;96.55
48027;BME280;50714;49.208;5.364;2023-03-11T03:25:15;98698.75;;;0.75;97.44
48027;BME280;50714;49.208;5.364;2023-03-11T03:35:15;98706.44;;;0.86;96.91
48027;BME280;50714;49.208;5.364;2023-03-11T03:45:16;98720.22;;;0.82;96.76
48027;BME280;50714;49.208;5.364;2023-03-11T03:55:16;98726.59;;;1.05;97.00
48027;BME280;50714;49.208;5.364;2023-03-11T04:05:17;98709.16;;;0.94;96.73
48027;BME280;50714;49.208;5.364;2023-03-11T04:15:17;98706.28;;;0.88;96.38
48027;BME280;50714;49.208;5.364;2023-03-11T04:25:18;98710.88;;;0.78;97.13
48027;BME280;50714;49.208;5.364;2023-03-11T04:35:18;98725.00;;;0.78;96.06
48027;BME280;50714;49.208;5.364;2023-03-11T04:45:18;98718.69;;;0.79;97.01
48027;BME280;50714;49.208;5.364;2023-03-11T04:55:19;98710.94;;;0.86;96.73
48027;BME280;50714;49.208;5.364;2023-03-11T05:05:19;98707.75;;;0.82;96.70
48027;BME280;50714;49.208;5.364;2023-03-11T05:15:20;98719.41;;;0.97;96.55
48027;BME280;50714;49.208;5.364;2023-03-11T05:25:20;98717.59;;;0.90;95.84
48027;BME280;50714;49.208;5.364;2023-03-11T05:35:21;98733.72;;;1.05;95.98
48027;BME280;50714;49.208;5.364;2023-03-11T05:45:21;98747.69;;;1.07;96.10
48027;BME280;50714;49.208;5.364;2023-03-11T05:55:22;98756.00;;;1.20;95.80
48027;BME280;50714;49.208;5.364;2023-03-11T06:05:22;98750.19;;;1.08;95.68
48027;BME280;50714;49.208;5.364;2023-03-11T06:15:22;98760.03;;;1.24;95.65
48027;BME280;50714;49.208;5.364;2023-03-11T06:25:23;98768.16;;;1.22;95.04
48027;BME280;50714;49.208;5.364;2023-03-11T06:35:23;98797.78;;;1.44;95.27
48027;BME280;50714;49.208;5.364;2023-03-11T06:45:23;98810.47;;;1.58;94.86
48027;BME280;50714;49.208;5.364;2023-03-11T06:55:24;98817.59;;;1.65;94.22
48027;BME280;50714;49.208;5.364;2023-03-11T07:05:24;98824.63;;;1.91;94.93
48027;BME280;50714;49.208;5.364;2023-03-11T07:15:25;98840.28;;;2.59;95.98
48027;BME280;50714;49.208;5.364;2023-03-11T07:25:25;98843.09;;;3.91;94.39
48027;BME280;50714;49.208;5.364;2023-03-11T07:35:25;98852.16;;;5.68;90.64
48027;BME280;50714;49.208;5.364;2023-03-11T07:45:26;98862.06;;;7.23;87.50
48027;BME280;50714;49.208;5.364;2023-03-11T07:55:26;98883.03;;;8.63;87.11
48027;BME280;50714;49.208;5.364;2023-03-11T08:05:26;98889.47;;;11.36;78.28
48027;BME280;50714;49.208;5.364;2023-03-11T08:15:27;98883.09;;;13.52;76.13
48027;BME280;50714;49.208;5.364;2023-03-11T08:25:27;98880.53;;;15.32;68.33
48027;BME280;50714;49.208;5.364;2023-03-11T08:35:27;98898.47;;;16.11;67.79
48027;BME280;50714;49.208;5.364;2023-03-11T08:45:28;98924.56;;;17.68;64.30
48027;BME280;50714;49.208;5.364;2023-03-11T08:55:28;98931.16;;;17.40;58.37
48027;BME280;50714;49.208;5.364;2023-03-11T09:05:28;98920.47;;;16.26;61.79
48027;BME280;50714;49.208;5.364;2023-03-11T09:15:29;98911.38;;;18.80;56.14
48027;BME280;50714;49.208;5.364;2023-03-11T09:25:29;98920.13;;;19.17;54.25
48027;BME280;50714;49.208;5.364;2023-03-11T09:35:29;98920.03;;;17.89;51.08
48027;BME280;50714;49.208;5.364;2023-03-11T09:45:34;98921.03;;;13.75;48.22
48027;BME280;50714;49.208;5.364;2023-03-11T09:55:54;98930.66;;;13.13;46.52
48027;BME280;50714;49.208;5.364;2023-03-11T10:06:02;98940.84;;;13.76;48.23
48027;BME280;50714;49.208;5.364;2023-03-11T10:16:45;98928.22;;;11.67;42.74
48027;BME280;50714;49.208;5.364;2023-03-11T10:27:02;98944.88;;;10.64;49.48
48027;BME280;50714;49.208;5.364;2023-03-11T10:37:25;98915.84;;;10.28;45.25
48027;BME280;50714;49.208;5.364;2023-03-11T10:47:28;98921.97;;;15.06;49.20
48027;BME280;50714;49.208;5.364;2023-03-11T10:57:36;98913.56;;;19.79;37.37
48027;BME280;50714;49.208;5.364;2023-03-11T11:07:37;98936.19;;;22.10;42.74
48027;BME280;50714;49.208;5.364;2023-03-11T11:17:46;98936.63;;;23.03;30.66
48027;BME280;50714;49.208;5.364;2023-03-11T11:28:00;98942.41;;;24.81;32.07
48027;BME280;50714;49.208;5.364;2023-03-11T11:38:01;98895.09;;;25.55;34.75
48027;BME280;50714;49.208;5.364;2023-03-11T11:48:15;98896.72;;;25.56;28.99
48027;BME280;50714;49.208;5.364;2023-03-11T11:58:17;98896.56;;;26.23;33.05
48027;BME280;50714;49.208;5.364;2023-03-11T12:18:40;98883.75;;;24.39;30.38
48027;BME280;50714;49.208;5.364;2023-03-11T12:38:51;98873.97;;;18.08;33.86
48027;BME280;50714;49.208;5.364;2023-03-11T12:49:11;98851.31;;;15.23;33.90
48027;BME280;50714;49.208;5.364;2023-03-11T13:10:12;98844.47;;;13.45;34.79
48027;BME280;50714;49.208;5.364;2023-03-11T13:20:53;98857.69;;;12.64;35.56
48027;BME280;50714;49.208;5.364;2023-03-11T13:31:20;98851.59;;;12.27;38.22
48027;BME280;50714;49.208;5.364;2023-03-11T13:41:34;98854.00;;;11.87;38.38
48027;BME280;50714;49.208;5.364;2023-03-11T13:51:40;98858.56;;;11.50;39.78
48027;BME280;50714;49.208;5.364;2023-03-11T14:01:53;98843.06;;;10.78;38.32
48027;BME280;50714;49.208;5.364;2023-03-11T14:12:03;98845.91;;;10.33;39.64
48027;BME280;50714;49.208;5.364;2023-03-11T14:22:07;98843.03;;;9.83;41.68
48027;BME280;50714;49.208;5.364;2023-03-11T14:42:23;98859.03;;;10.16;42.67
48027;BME280;50714;49.208;5.364;2023-03-11T14:52:33;98861.22;;;10.39;43.18
48027;BME280;50714;49.208;5.364;2023-03-11T15:12:49;98849.38;;;10.02;43.47
48027;BME280;50714;49.208;5.364;2023-03-11T15:22:54;98857.66;;;9.56;43.34
48027;BME280;50714;49.208;5.364;2023-03-11T15:32:59;98857.84;;;9.61;42.68
48027;BME280;50714;49.208;5.364;2023-03-11T15:53:16;98877.63;;;9.09;43.25
48027;BME280;50714;49.208;5.364;2023-03-11T16:03:17;98872.91;;;8.91;43.88
48027;BME280;50714;49.208;5.364;2023-03-11T16:13:17;98879.09;;;8.78;44.39
48027;BME280;50714;49.208;5.364;2023-03-11T16:23:25;98888.59;;;8.41;44.31
48027;BME280;50714;49.208;5.364;2023-03-11T16:33:26;98886.09;;;8.33;44.41
48027;BME280;50714;49.208;5.364;2023-03-11T16:43:27;98888.50;;;8.28;45.07
48027;BME280;50714;49.208;5.364;2023-03-11T16:53:28;98891.56;;;7.99;44.80
48027;BME280;50714;49.208;5.364;2023-03-11T17:03:28;98906.78;;;7.78;45.67
48027;BME280;50714;49.208;5.364;2023-03-11T17:13:29;98911.63;;;7.55;47.09
48027;BME280;50714;49.208;5.364;2023-03-11T17:23:29;98917.34;;;7.17;47.90
48027;BME280;50714;49.208;5.364;2023-03-11T17:33:29;98919.63;;;6.93;47.93
48027;BME280;50714;49.208;5.364;2023-03-11T17:43:30;98923.63;;;6.75;49.74
48027;BME280;50714;49.208;5.364;2023-03-11T17:53:30;98940.41;;;6.41;50.25
48027;BME280;50714;49.208;5.364;2023-03-11T18:03:30;98947.53;;;6.13;51.01
48027;BME280;50714;49.208;5.364;2023-03-11T18:13:32;98964.88;;;5.73;52.12
48027;BME280;50714;49.208;5.364;2023-03-11T18:23:33;98974.56;;;5.30;52.51
48027;BME280;50714;49.208;5.364;2023-03-11T18:33:34;98980.78;;;5.07;52.87
48027;BME280;50714;49.208;5.364;2023-03-11T18:43:35;98983.44;;;4.93;52.82
48027;BME280;50714;49.208;5.364;2023-03-11T18:53:36;98995.06;;;4.77;53.51
48027;BME280;50714;49.208;5.364;2023-03-11T19:03:36;98998.56;;;4.55;53.27
48027;BME280;50714;49.208;5.364;2023-03-11T19:13:37;99000.03;;;4.34;54.57
48027;BME280;50714;49.208;5.364;2023-03-11T19:23:41;99007.25;;;4.26;55.06
48027;BME280;50714;49.208;5.364;2023-03-11T19:33:42;99001.00;;;4.02;55.21
48027;BME280;50714;49.208;5.364;2023-03-11T19:43:46;99005.59;;;3.86;56.59
48027;BME280;50714;49.208;5.364;2023-03-11T19:53:46;99007.81;;;3.74;57.49
48027;BME280;50714;49.208;5.364;2023-03-11T20:03:47;99016.19;;;3.63;58.74
48027;BME280;50714;49.208;5.364;2023-03-11T20:13:47;99012.88;;;3.53;60.21
48027;BME280;50714;49.208;5.364;2023-03-11T20:23:47;99017.22;;;3.37;59.45
48027;BME280;50714;49.208;5.364;2023-03-11T20:33:49;99011.56;;;3.49;60.48
48027;BME280;50714;49.208;5.364;2023-03-11T20:43:51;99016.72;;;3.34;61.36
48027;BME280;50714;49.208;5.364;2023-03-11T20:53:52;99021.44;;;3.24;62.20
48027;BME280;50714;49.208;5.364;2023-03-11T21:03:54;99020.44;;;3.17;63.78
48027;BME280;50714;49.208;5.364;2023-03-11T21:13:55;99023.44;;;3.05;65.02
48027;BME280;50714;49.208;5.364;2023-03-11T21:23:55;99024.94;;;3.16;64.81
48027;BME280;50714;49.208;5.364;2023-03-11T21:33:57;99022.44;;;3.15;66.11
48027;BME280;50714;49.208;5.364;2023-03-11T21:43:58;99016.59;;;2.95;67.17
48027;BME280;50714;49.208;5.364;2023-03-11T21:53:58;99021.09;;;3.02;67.51
48027;BME280;50714;49.208;5.364;2023-03-11T22:04:00;99012.75;;;2.89;67.48
48027;BME280;50714;49.208;5.364;2023-03-11T22:14:00;99007.78;;;3.02;67.29
48027;BME280;50714;49.208;5.364;2023-03-11T22:24:01;99001.59;;;3.10;68.05
48027;BME280;50714;49.208;5.364;2023-03-11T22:34:01;98999.78;;;3.02;68.62
48027;BME280;50714;49.208;5.364;2023-03-11T22:44:01;98999.44;;;3.22;70.03
48027;BME280;50714;49.208;5.364;2023-03-11T22:54:02;98995.72;;;3.31;70.36
48027;BME280;50714;49.208;5.364;2023-03-11T23:04:02;98986.72;;;3.40;70.20
48027;BME280;50714;49.208;5.364;2023-03-11T23:14:02;98996.50;;;3.64;70.27
48027;BME280;50714;49.208;5.364;2023-03-11T23:24:04;99003.19;;;3.60;69.75
48027;BME280;50714;49.208;5.364;2023-03-11T23:34:05;99002.84;;;3.55;71.09
48027;BME280;50714;49.208;5.364;2023-03-11T23:44:05;98989.50;;;3.55;71.30
48027;BME280;50714;49.208;5.364;2023-03-11T23:54:06;98991.47;;;3.77;69.38
